Stations météo

Publicité
Schmücke, Allemagne (10552): Température de l'air & dewpoint: 13.01.2018 06:00:00 - 19.01.2018 06:00:00 (CET)Schmücke, Allemagne (10552): Température de l'air 5cm & Température de l'air -5cm: 13.01.2018 06:00:00 - 19.01.2018 06:00:00 (CET)Schmücke, Allemagne (10552): Température de l'air -20cm & Température de l'air -100cm: 13.01.2018 06:00:00 - 19.01.2018 06:00:00 (CET)Schmücke, Allemagne (10552): Vitesse du vent & gusts: 13.01.2018 06:00:00 - 19.01.2018 06:00:00 (CET)Schmücke, Allemagne (10552): Direction du vent: 13.01.2018 06:00:00 - 19.01.2018 06:00:00 (CET)Schmücke, Allemagne (10552): visibility: 13.01.2018 06:00:00 - 19.01.2018 06:00:00 (CET)Schmücke, Allemagne (10552): Ensoleillement: 13.01.2018 06:00:00 - 19.01.2018 06:00:00 (CET)Schmücke, Allemagne (10552): Quantités de précipitations: 13.01.2018 06:00:00 - 19.01.2018 06:00:00 (CET)
Date & Time tt [°C] td [°C] tt 5cm [°C] tt -5cm [°C] tt -20cm [°C] tt -100cm [°C] ff [km/h] ff [knt] fx [km/h] fx [knt] dd vv [km] sd [min] rr [mm]
19.01.2018 06:00:00 -2,8 -3,4 0,0 0,2 0,6 2,6 11 6 21 12 WSW 0,6 0 0,1
19.01.2018 05:00:00 -2,8 -3,5 0,0 0,2 0,6 2,6 14 8 27 14 WSW 10 0 0,0
19.01.2018 04:00:00 -3,0 -3,6 0,0 0,2 0,6 2,6 14 8 35 19 WSW 7 0 0,0
19.01.2018 03:00:00 -2,8 -3,5 0,0 0,2 0,6 2,6 20 11 35 19 WSW 8 0 0,0
19.01.2018 02:00:00 -2,6 -3,4 0,0 0,2 0,6 2,6 20 11 32 17 W 10 0 0,0
19.01.2018 01:00:00 -2,6 -3,4 0,0 0,2 0,6 2,6 17 9 37 20 WSW 13 0 0,0
19.01.2018 00:00:00 -2,6 -3,5 0,0 0,2 0,6 2,6 20 11 35 19 WSW 21 0 0,0
18.01.2018 23:00:00 -2,5 -3,5 0,0 0,2 0,6 2,6 22 12 45 25 WSW 25 0 0,0
18.01.2018 22:00:00 -2,4 -3,8 0,0 0,2 0,6 2,6 27 14 49 26 W 30 0 0,0
18.01.2018 21:00:00 -2,3 -3,6 0,0 0,2 0,6 2,6 28 15 50 27 WSW 31 0 0,0
18.01.2018 20:00:00 -2,0 -3,0 0,0 0,2 0,6 2,6 26 14 56 31 W 29 0 0,0
18.01.2018 19:00:00 -1,7 -2,8 0,0 0,2 0,6 2,6 31 17 59 32 W 28 0 0,1
18.01.2018 18:00:00 -1,4 -2,7 0,0 0,2 0,6 2,6 34 18 71 39 W 32 0 0,0
18.01.2018 17:00:00 -1,4 -2,8 0,0 0,2 0,6 2,6 40 22 84 45 W 43 0 0,0
18.01.2018 16:00:00 -1,1 -2,6 0,0 0,2 0,6 2,6 53 29 108 59 W 31 20 0,0
18.01.2018 15:00:00 0,0 -0,8 0,0 0,2 0,6 2,6 49 26 113 61 WSW 32 24 0,1
18.01.2018 14:00:00 0,1 -0,5 0,0 0,2 0,6 2,6 56 31 96 52 WSW 21 3 0,1
18.01.2018 13:00:00 0,0 -0,2 0,0 0,2 0,6 2,6 44 24 91 49 SW 0,1 0 0,7
18.01.2018 12:00:00 -0,6 -0,9 0,0 0,2 0,6 2,6 52 28 87 47 SW 0,1 0 1,3
18.01.2018 11:00:00 -1,6 -2,1 0,0 0,2 0,6 2,6 61 33 93 50 SW 0,1 0 0,6
18.01.2018 10:00:00 -2,4 -3,0 -0,1 0,2 0,6 2,6 54 29 95 51 SW 0,2 0 0,7
18.01.2018 09:00:00 -2,6 -3,2 -0,1 0,2 0,6 2,6 49 27 85 46 SSW 0,2 0 1,7
18.01.2018 08:00:00 -2,6 -3,2 -0,1 0,2 0,6 2,6 48 26 79 43 SSW 0,1 0 1,0
18.01.2018 07:00:00 -2,8 -3,4 -0,1 0,2 0,6 2,6 46 25 71 38 SW 0,1 0 0,5
18.01.2018 06:00:00 -3,0 -3,6 -0,1 0,2 0,6 2,6 36 19 65 35 SW 0,1 0 0,1
18.01.2018 05:00:00 -3,1 -3,7 -0,1 0,2 0,6 2,6 31 17 48 26 SW 0,1 0 0,0
18.01.2018 04:00:00 -3,5 -4,2 -0,1 0,2 0,6 2,6 24 13 41 22 SW 0,1 0 0,0
18.01.2018 03:00:00 -3,6 -4,3 -0,1 0,2 0,6 2,6 23 13 39 21 SW 0,1 0 0,1
18.01.2018 02:00:00 -3,5 -4,2 -0,1 0,2 0,6 2,6 23 12 42 23 SW 0,1 0 0,1
18.01.2018 01:00:00 -3,5 -4,2 -0,1 0,2 0,6 2,6 25 14 42 23 WSW 0,3 0 0,0
18.01.2018 00:00:00 -3,5 -4,2 -0,1 0,2 0,6 2,6 24 13 48 26 WSW 0,4 0 0,0
17.01.2018 23:00:00 -3,4 -4,1 -0,1 0,2 0,6 2,6 29 16 53 29 W 1,8 0 0,7
17.01.2018 22:00:00 -3,6 -4,4 -0,1 0,2 0,6 2,6 24 13 61 33 W 0,2 0 0,2
17.01.2018 21:00:00 -3,6 -4,4 -0,1 0,2 0,6 2,6 28 15 61 33 W 6 0 0,1
17.01.2018 20:00:00 -3,6 -4,4 -0,1 0,2 0,6 2,6 34 18 60 33 W 1,4 0 0,2
17.01.2018 19:00:00 -3,5 -4,3 0,0 0,2 0,6 2,6 32 18 60 33 W 0,8 0 1,1
17.01.2018 18:00:00 -3,7 -4,5 -0,1 0,2 0,6 2,6 34 18 62 33 WSW 0,6 0 0,0
17.01.2018 17:00:00 -3,9 -4,6 -0,1 0,2 0,6 2,6 27 15 53 29 WSW 0,1 0 0,7
17.01.2018 16:00:00 -4,1 -4,8 -0,1 0,2 0,6 2,6 27 15 53 28 WSW 1,1 0 0,2
17.01.2018 15:00:00 -4,2 -5,1 -0,1 0,2 0,6 2,6 25 13 49 26 WSW 3,2 0 0,2
17.01.2018 14:00:00 -4,2 -5,0 -0,1 0,2 0,6 2,6 29 15 56 30 WSW 2,5 0 0,3
17.01.2018 13:00:00 -4,1 -5,0 0,0 0,2 0,6 2,6 29 15 54 29 WSW 1,2 0 0,4
17.01.2018 12:00:00 -4,0 -4,9 0,0 0,2 0,6 2,6 31 17 53 29 WSW 2,8 0 0,1
17.01.2018 11:00:00 -3,9 -4,7 0,0 0,2 0,6 2,6 28 15 53 28 W 1,4 0 2,0
17.01.2018 10:00:00 -4,0 -5,0 -0,1 0,2 0,6 2,6 26 14 47 25 W 0,1 0 2,7
17.01.2018 09:00:00 -3,8 -4,6 0,0 0,2 0,6 2,6 23 12 48 26 WSW 0,6 0 0,7
17.01.2018 08:00:00 -3,7 -4,6 0,0 0,2 0,6 2,6 27 15 48 26 W 0,7 0 1,9
17.01.2018 07:00:00 -3,1 -3,9 0,0 0,2 0,6 2,6 32 18 60 33 WSW 1,2 0 0,8
17.01.2018 06:00:00 -2,9 -3,6 0,0 0,2 0,6 2,6 21 11 35 19 WSW 0,1 0 2,2
17.01.2018 05:00:00 -2,9 -3,6 0,0 0,2 0,6 2,6 16 9 40 21 SW 0,2 0 0,8
17.01.2018 04:00:00 -2,9 -3,4 0,0 0,2 0,6 2,6 23 13 43 23 SW 0,1 0 0,0
17.01.2018 03:00:00 -3,0 -3,6 0,0 0,2 0,6 2,6 25 14 44 24 SW 0,1 0 0,0
17.01.2018 02:00:00 -3,3 -3,9 0,0 0,2 0,6 2,6 21 11 36 19 SW 0,1 0 0,0
17.01.2018 01:00:00 -3,2 -3,8 0,0 0,2 0,6 2,6 21 11 37 20 WSW 0,1 0 0,0
17.01.2018 00:00:00 -3,0 -3,6 0,0 0,2 0,6 2,6 19 10 39 21 WSW 0,1 0 0,0
16.01.2018 23:00:00 -3,0 -3,6 0,0 0,2 0,6 2,6 22 12 33 18 W 0,3 0 1,1
16.01.2018 22:00:00 -3,0 -3,7 0,0 0,2 0,6 2,6 17 9 32 18 WSW 0,3 0 1,5
16.01.2018 21:00:00 -2,9 -3,5 0,0 0,2 0,6 2,6 16 9 40 22 WSW 0,1 0 0,0
16.01.2018 20:00:00 -3,0 -3,6 -0,1 0,2 0,6 2,6 18 10 48 26 WSW 0,3 0 0,0
16.01.2018 19:00:00 -2,8 -3,4 -0,1 0,2 0,6 2,6 26 14 48 26 WSW 0,3 0 0,0
16.01.2018 18:00:00 -2,6 -3,2 -0,1 0,2 0,6 2,6 33 18 58 31 WSW 0,5 0 0,3
16.01.2018 17:00:00 -2,4 -3,0 -0,1 0,1 0,6 2,6 27 15 56 31 W 0,3 0 0,1
16.01.2018 16:00:00 -2,2 -2,8 -0,1 0,1 0,6 2,6 32 17 63 34 W 13 0 0,3
16.01.2018 15:00:00 -1,6 -2,1 -0,1 0,1 0,6 2,6 35 19 79 43 W 0,3 0 3,5
16.01.2018 14:00:00 0,0 -0,3 -0,1 0,1 0,6 2,6 31 17 58 31 SW 0,1 0 0,4
16.01.2018 13:00:00 0,0 -0,2 -0,1 0,1 0,6 2,6 27 14 53 29 SW 0,1 0 0,6
16.01.2018 12:00:00 -0,1 -0,4 -0,1 0,1 0,6 2,6 34 18 52 28 SW 0,1 0 0,0
16.01.2018 11:00:00 0,0 -0,3 -0,2 0,1 0,6 2,6 23 12 49 27 SW 0,1 0 0,0
16.01.2018 10:00:00 0,0 -0,2 -0,2 0,1 0,6 2,6 23 12 61 33 WSW 0,1 0 0,3
16.01.2018 09:00:00 0,0 -0,4 -0,2 0,1 0,6 2,6 28 15 53 28 SW 0,1 0 2,4
16.01.2018 08:00:00 0,1 -0,2 -0,2 0,1 0,6 2,6 34 19 61 33 SW 0,1 0 0,1
16.01.2018 07:00:00 0,1 -0,2 -0,2 0,1 0,6 2,6 27 15 50 27 SW 0,1 0 1,3
16.01.2018 06:00:00 0,0 -0,3 -0,2 0,1 0,6 2,6 24 13 52 28 WSW 0,2 0 1,1
16.01.2018 05:00:00 0,0 -0,2 -0,3 0,1 0,6 2,6 32 17 68 37 WSW 0,1 0 3,7
16.01.2018 04:00:00 0,0 -0,2 -0,3 0,1 0,6 2,6 42 23 73 40 SW 0,1 0 1,2
16.01.2018 03:00:00 -0,5 -0,8 -0,3 0,1 0,6 2,6 34 18 58 32 SW 0,1 0 1,2
16.01.2018 02:00:00 -1,0 -1,4 -0,3 0,1 0,6 2,6 38 21 74 40 SW 0,1 0 1,2
16.01.2018 01:00:00 -1,8 -2,3 -0,3 0,1 0,6 2,6 36 19 71 39 SSW 0,1 0 0,7
16.01.2018 00:00:00 -1,8 -2,3 -0,3 0,1 0,6 2,6 42 23 79 42 SSW 0,2 0 1,7
15.01.2018 23:00:00 -2,0 -2,5 -0,4 0,1 0,6 2,6 46 25 82 44 SSW 0,1 0 1,3
15.01.2018 22:00:00 -2,2 -2,7 -0,4 0,1 0,6 2,6 41 22 79 43 SSW 0,1 0 0,7
15.01.2018 21:00:00 -2,4 -2,9 -0,4 0,1 0,6 2,6 33 18 74 40 SSW 0,1 0 0,2
15.01.2018 20:00:00 -2,5 -3,0 -0,4 0,1 0,6 2,6 39 21 74 40 S 0,2 0 0,1
15.01.2018 19:00:00 -2,9 -3,5 -0,4 0,1 0,6 2,6 31 17 71 38 S 0,4 0 0,5
15.01.2018 18:00:00 -3,0 -3,7 -0,4 0,1 0,6 2,6 32 17 67 36 S 2,1 0 0,0
15.01.2018 17:00:00 -3,3 -4,0 -0,5 0,1 0,6 2,6 32 18 64 35 SSW 0,4 0 0,1
15.01.2018 16:00:00 -3,6 -4,3 -0,5 0,1 0,6 2,6 21 12 55 30 SSW 2,0 0 0,1
15.01.2018 15:00:00 -3,4 -4,1 -0,5 0,1 0,6 2,6 24 13 53 29 SSW 2,0 0 0,0
15.01.2018 14:00:00 -3,8 -4,5 -0,5 0,0 0,6 2,6 26 14 55 30 SW 0,9 0 0,2
15.01.2018 13:00:00 -4,1 -4,8 -0,6 0,1 0,6 2,6 38 20 62 33 SW 1,0 0 0,0
15.01.2018 12:00:00 -4,4 -5,1 -0,6 0,0 0,6 2,6 35 19 61 33 SW 1,0 0 0,0
15.01.2018 11:00:00 -4,7 -5,5 -0,6 0,0 0,6 2,6 29 16 62 34 SW 0,7 0 0,0
15.01.2018 10:00:00 -4,6 -5,3 -0,7 0,0 0,6 2,6 28 15 60 32 SSW 1,5 0 0,0
15.01.2018 09:00:00 -4,8 -5,5 -0,7 0,0 0,6 2,6 33 18 58 31 SW 0,3 0 0,0
15.01.2018 08:00:00 -4,9 -5,6 -0,7 0,0 0,6 2,6 27 15 51 28 SSW 0,4 0 0,0
15.01.2018 07:00:00 -5,0 -5,8 -0,7 0,0 0,6 2,6 28 15 54 29 SW 0,3 0 0,0
15.01.2018 06:00:00 -5,3 -6,1 -0,7 0,0 0,6 2,6 39 21 55 30 SW 0,5 0 0,0
15.01.2018 05:00:00 -5,3 -6,2 -0,6 0,0 0,6 2,6 36 20 50 27 SSW 3,1 0 0,0
15.01.2018 04:00:00 -5,4 -6,4 -0,6 0,1 0,6 2,6 33 18 48 26 SSW 7 0 0,0
15.01.2018 03:00:00 -5,5 -6,5 -0,6 0,1 0,6 2,6 31 17 48 26 SSW 6 0 0,0
15.01.2018 02:00:00 -5,5 -6,6 -0,6 0,1 0,6 2,6 25 14 40 22 SSW 5 0 0,0
15.01.2018 01:00:00 -5,5 -6,7 -0,5 0,1 0,6 2,6 22 12 38 21 S 7 0 0,0
15.01.2018 00:00:00 -5,2 -6,6 -0,5 0,1 0,6 2,6 16 9 34 19 S 10 0 0,0
14.01.2018 23:00:00 -5,0 -6,4 -0,5 0,1 0,6 2,6 19 10 30 16 S 10 0 0,0
14.01.2018 22:00:00 -4,9 -6,2 -0,5 0,1 0,6 2,6 17 9 34 18 S 9 0 0,0
14.01.2018 21:00:00 -4,8 -6,1 -0,5 0,2 0,6 2,6 13 7 24 13 S 10 0 0,0
14.01.2018 20:00:00 -4,9 -6,2 -0,4 0,2 0,6 2,6 10 6 27 15 SSE 12 0 0,0
14.01.2018 19:00:00 -5,0 -6,1 -0,3 0,2 0,6 2,6 10 5 21 11 SE 13 0 0,0
14.01.2018 18:00:00 -5,1 -6,2 -0,2 0,2 0,6 2,6 7 4 17 9 SSE 13 0 0,0
14.01.2018 17:00:00 -5,4 -6,7 -0,2 0,2 0,6 2,6 6 3 19 10 SE 14 9 0,0
14.01.2018 16:00:00 -4,6 -6,0 -0,2 0,2 0,6 2,6 9 5 24 13 ESE 12 44 0,0
14.01.2018 15:00:00 -3,8 -4,9 -0,2 0,2 0,6 2,6 9 5 26 14 ESE 12 42 0,0
14.01.2018 14:00:00 -3,6 -5,1 -0,3 0,2 0,6 2,6 14 8 29 16 ESE 18 34 0,0
14.01.2018 13:00:00 -2,5 -3,2 -0,3 0,2 0,6 2,6 10 5 25 14 SE 14 22 0,0
14.01.2018 12:00:00 -4,0 -5,0 -0,3 0,2 0,6 2,6 11 6 27 14 ESE 10 4 0,0
14.01.2018 11:00:00 -4,6 -5,5 -0,2 0,2 0,6 2,6 9 5 22 12 E 5 0 0,0
14.01.2018 10:00:00 -4,9 -5,8 -0,2 0,2 0,6 2,6 13 7 26 14 E 5 0 0,0
14.01.2018 09:00:00 -4,9 -6,0 -0,1 0,2 0,6 2,6 13 7 26 14 E 6 0 0,0
14.01.2018 08:00:00 -4,8 -5,8 -0,1 0,2 0,6 2,6 13 7 31 17 ESE 9 0 0,0
14.01.2018 07:00:00 -5,1 -6,0 -0,1 0,2 0,6 2,6 13 7 31 17 ESE 9 0 0,0
14.01.2018 06:00:00 -5,4 -6,5 -0,1 0,2 0,6 2,6 14 8 35 19 ESE 10 0 0,0
14.01.2018 05:00:00 -6,3 -7,4 -0,1 0,2 0,6 2,6 13 7 32 18 SE 11 0 0,0
14.01.2018 04:00:00 -6,6 -7,8 -0,1 0,2 0,6 2,6 15 8 24 13 ESE 10 0 0,0
14.01.2018 03:00:00 -6,2 -7,2 -0,1 0,2 0,6 2,6 11 6 20 11 ESE 4,5 0 0,0
14.01.2018 02:00:00 -6,0 -6,9 -0,1 0,2 0,6 2,6 7 4 20 11 E 3,3 0 0,0
14.01.2018 01:00:00 -5,3 -6,1 -0,1 0,2 0,6 2,6 10 5 20 11 ESE 2,4 0 0,0
14.01.2018 00:00:00 -4,9 -5,8 0,0 0,2 0,6 2,6 11 6 21 11 E 1,6 0 0,0
13.01.2018 23:00:00 -4,1 -4,7 -0,1 0,2 0,6 2,6 10 5 25 14 E 0,1 0 0,0
13.01.2018 22:00:00 -4,0 -4,6 -0,1 0,2 0,6 2,6 13 7 31 17 E 0,1 0 0,0
13.01.2018 21:00:00 -3,7 -4,3 -0,1 0,2 0,6 2,6 20 11 35 19 ENE 0,1 0 0,0
13.01.2018 20:00:00 -3,5 -4,0 -0,1 0,2 0,6 2,6 21 12 40 22 ENE 0,1 0 0,0
13.01.2018 19:00:00 -3,0 -3,5 -0,1 0,2 0,6 2,6 19 11 39 21 ENE 0,1 0 0,0
13.01.2018 18:00:00 -2,6 -3,0 -0,1 0,2 0,6 2,6 16 9 32 17 ENE 0,1 0 0,1
13.01.2018 17:00:00 -2,3 -2,7 -0,1 0,2 0,6 2,6 15 8 29 15 ENE 0,1 0 0,0
13.01.2018 16:00:00 -2,2 -2,7 0,0 0,2 0,6 2,6 13 7 23 13 ENE 0,2 0 0,0
13.01.2018 15:00:00 -2,1 -2,5 0,0 0,2 0,6 2,6 15 8 29 16 ENE 0,3 0 0,0
13.01.2018 14:00:00 -2,0 -2,5 0,0 0,2 0,6 2,6 17 9 33 18 ENE 0,4 0 0,0
13.01.2018 13:00:00 -1,9 -2,4 0,0 0,2 0,6 2,6 15 8 29 16 ENE 1,8 0 0,0
13.01.2018 12:00:00 -1,9 -2,5 0,0 0,2 0,6 2,6 14 8 27 15 E 1,8 0 0,0
13.01.2018 11:00:00 -1,9 -2,6 0,0 0,2 0,6 2,6 16 9 30 16 E 4,9 0 0,0
13.01.2018 10:00:00 -1,7 -2,2 0,0 0,2 0,6 2,6 13 7 31 17 E 1,7 0 0,0
13.01.2018 09:00:00 -1,6 -2,1 0,0 0,2 0,6 2,6 16 9 31 17 ENE 1,6 0 0,0
13.01.2018 08:00:00 -1,3 -1,8 0,0 0,2 0,6 2,6 16 9 29 16 ENE 1,5 0 0,0
13.01.2018 07:00:00 -1,1 -1,7 0,0 0,2 0,6 2,6 16 9 29 15 ENE 3,7 0 0,0
13.01.2018 06:00:00 -0,8 -1,2 0,0 0,2 0,6 2,6 10 5 19 10 ENE 0,4 0 0,0

tt = Température de l'air
td = dewpoint
tt 5cm = Température de l'air 5cm
tt -5cm = Température de l'air -5cm
tt -20cm = Température de l'air -20cm
tt -100cm = Température de l'air -100cm
ff = Vitesse du vent
fx = gusts
dd = Direction du vent
vv = visibility
sd = Ensoleillement
rr = Quantités de précipitations

stations d'obs. à proximité